Time;durP1;ratioP1;P1;durP2;ratioP2;P2;SDS_P1;SDS_P2;PMS_P1;PMS_P2;Temp;Humidity;BMP_temperature;BMP_pressure;BME280_temperature;BME280_humidity;BME280_pressure;Samples;Min_cycle;Max_cycle;Signal;HPM_P1;HPM_P2
2021/04/05 00:02:15;;;;;;;0.30;0.20;;;;;;;2.55;93.78;100103.31;5033911;28;20447;-55
2021/04/05 00:04:42;;;;;;;0.30;0.10;;;;;;;2.61;93.56;100107.69;5033514;28;20475;-55
2021/04/05 00:07:10;;;;;;;0.30;0.20;;;;;;;2.56;93.83;100107.69;5032365;28;20945;-55
2021/04/05 00:09:39;;;;;;;0.30;0.20;;;;;;;2.61;93.76;100095.44;5033399;28;20494;-55
2021/04/05 00:12:09;;;;;;;0.30;0.20;;;;;;;2.71;93.23;100090.19;5033430;28;20455;-55
2021/04/05 00:14:37;;;;;;;0.30;0.10;;;;;;;2.54;93.91;100087.56;5033553;28;20463;-55
2021/04/05 00:17:04;;;;;;;0.30;0.20;;;;;;;2.48;93.44;100079.72;5033498;28;20447;-56
2021/04/05 00:19:32;;;;;;;0.30;0.20;;;;;;;2.50;93.78;100077.94;5033256;28;20444;-56
2021/04/05 00:21:58;;;;;;;0.30;0.20;;;;;;;2.62;92.60;100072.72;5033213;28;20447;-56
2021/04/05 00:24:25;;;;;;;13.37;2.40;;;;;;;2.38;94.35;100068.31;5033036;28;20475;-56
2021/04/05 00:26:51;;;;;;;0.30;0.20;;;;;;;2.45;93.18;100066.56;5033252;28;20455;-56
2021/04/05 00:29:17;;;;;;;0.30;0.20;;;;;;;2.47;93.08;100049.97;5033071;28;21053;-56
2021/04/05 00:31:43;;;;;;;0.50;0.50;;;;;;;2.32;93.61;100040.31;5032926;28;20447;-56
2021/04/05 00:34:09;;;;;;;0.30;0.20;;;;;;;2.33;93.93;100020.22;5033356;28;20988;-55
2021/04/05 00:36:35;;;;;;;0.30;0.10;;;;;;;2.32;94.35;100013.22;5033585;28;20456;-55
2021/04/05 00:39:05;;;;;;;0.30;0.13;;;;;;;2.16;94.08;99998.38;5033049;28;20455;-55
2021/04/05 00:41:31;;;;;;;0.30;0.30;;;;;;;2.24;95.24;100005.38;5032756;28;21003;-55
2021/04/05 00:43:57;;;;;;;0.30;0.30;;;;;;;2.32;96.50;100000.13;5032718;28;20472;-54
2021/04/05 00:46:25;;;;;;;0.30;0.10;;;;;;;2.21;96.32;99999.28;5033064;28;20521;-55
2021/04/05 00:48:52;;;;;;;0.30;0.20;;;;;;;2.27;95.41;99987.03;5033217;28;20483;-55
2021/04/05 00:51:21;;;;;;;0.30;0.10;;;;;;;2.26;95.61;99972.16;5032732;28;20447;-55
2021/04/05 00:53:48;;;;;;;0.30;0.27;;;;;;;2.31;94.86;99978.28;5032583;28;20471;-55
2021/04/05 00:56:16;;;;;;;0.30;0.10;;;;;;;2.26;94.45;99976.53;5032416;28;20455;-55
2021/04/05 00:58:43;;;;;;;0.30;0.10;;;;;;;2.35;94.78;99973.91;5032704;28;20799;-55
2021/04/05 01:01:13;;;;;;;0.27;0.10;;;;;;;2.23;96.12;99966.06;5032979;28;20448;-55
2021/04/05 01:03:41;;;;;;;0.20;0.10;;;;;;;2.34;96.02;99959.06;5032640;28;20557;-55
2021/04/05 01:06:07;;;;;;;0.30;0.23;;;;;;;2.24;94.94;99958.19;5032540;28;20945;-55
2021/04/05 01:08:33;;;;;;;0.50;0.50;;;;;;;2.28;95.17;99965.16;5032432;28;20893;-55
2021/04/05 01:11:00;;;;;;;0.20;0.10;;;;;;;2.13;95.81;99964.31;5032674;28;20456;-55
2021/04/05 01:13:26;;;;;;;0.30;0.20;;;;;;;2.14;96.52;99958.19;5032101;28;20529;-54
2021/04/05 01:15:52;;;;;;;0.30;0.20;;;;;;;2.14;96.45;99955.56;5032202;28;20823;-55
2021/04/05 01:18:20;;;;;;;0.30;0.20;;;;;;;2.15;96.23;99944.19;5032403;28;20444;-55
2021/04/05 01:20:46;;;;;;;0.30;0.20;;;;;;;2.14;96.01;99945.06;5032398;28;20471;-55
2021/04/05 01:23:14;;;;;;;0.20;0.10;;;;;;;1.88;96.37;99945.94;5031951;28;20472;-55
2021/04/05 01:25:41;;;;;;;0.83;0.83;;;;;;;1.99;95.21;99940.69;5032329;28;20454;-55
2021/04/05 01:28:08;;;;;;;0.30;0.20;;;;;;;1.93;95.59;99936.34;5032577;28;20518;-54
2021/04/05 01:30:42;;;;;;;0.30;0.10;;;;;;;2.00;95.89;99938.06;5032255;28;20447;-55
2021/04/05 01:33:17;;;;;;;0.20;0.13;;;;;;;2.00;96.58;99948.56;5031868;28;20474;-55
2021/04/05 01:35:56;;;;;;;0.30;0.17;;;;;;;1.98;95.40;99939.84;5032247;28;20447;-55
2021/04/05 01:38:26;;;;;;;0.20;0.10;;;;;;;1.87;96.09;99931.09;5032284;28;20498;-55
2021/04/05 01:41:03;;;;;;;0.30;0.20;;;;;;;1.99;95.65;99928.47;5032588;28;20435;-55
2021/04/05 01:43:29;;;;;;;0.23;0.10;;;;;;;2.00;95.10;99914.50;5019381;28;20467;-55
2021/04/05 01:45:57;;;;;;;3.87;3.63;;;;;;;1.96;95.60;99897.03;5035101;28;20448;-55
2021/04/05 01:48:25;;;;;;;0.20;0.10;;;;;;;1.95;95.93;99890.03;5036191;28;20491;-55
2021/04/05 01:51:00;;;;;;;0.27;0.10;;;;;;;1.86;95.42;99879.56;5036356;28;20451;-55
2021/04/05 01:53:27;;;;;;;0.20;0.10;;;;;;;1.72;96.64;99868.19;5036067;28;20517;-55
2021/04/05 01:55:57;;;;;;;0.30;0.10;;;;;;;1.71;97.73;99861.22;5035690;28;20486;-55
2021/04/05 01:58:23;;;;;;;0.30;0.20;;;;;;;1.83;97.72;99849.88;5036216;28;20443;-55
2021/04/05 02:00:50;;;;;;;2.83;1.47;;;;;;;1.86;97.90;99844.63;5035843;28;20448;-55
2021/04/05 02:03:16;;;;;;;0.60;0.57;;;;;;;1.91;99.12;99848.97;5035955;28;20471;-55
2021/04/05 02:05:56;;;;;;;0.20;0.20;;;;;;;2.02;97.11;99836.72;5035449;28;20447;-55
2021/04/05 02:08:25;;;;;;;0.33;0.33;;;;;;;2.06;97.25;99835.00;5034360;28;20513;-54
2021/04/05 02:10:52;;;;;;;2.60;2.10;;;;;;;2.27;95.75;99826.19;5035900;28;20864;-55
2021/04/05 02:13:21;;;;;;;0.30;0.10;;;;;;;2.06;96.38;99811.41;5035735;28;20468;-55
2021/04/05 02:15:48;;;;;;;0.20;0.20;;;;;;;1.90;99.22;99799.19;5035489;28;20456;-55
2021/04/05 02:18:16;;;;;;;0.27;0.10;;;;;;;2.02;99.47;99805.28;5034251;28;20443;-55
2021/04/05 02:20:43;;;;;;;0.20;0.10;;;;;;;2.07;98.25;99803.53;5035525;28;20531;-55
2021/04/05 02:23:10;;;;;;;0.20;0.20;;;;;;;2.13;100.00;99793.91;5035657;28;20479;-55
2021/04/05 02:26:05;;;;;;;0.20;0.20;;;;;;;2.25;99.04;99791.25;5035520;28;20455;-54
2021/04/05 02:28:22;;;;;;;0.20;0.10;;;;;;;2.21;99.00;99785.16;5035184;28;20540;-55
2021/04/05 02:30:49;;;;;;;0.23;0.20;;;;;;;2.27;98.27;99781.63;5035289;28;20444;-55
2021/04/05 02:33:18;;;;;;;0.30;0.10;;;;;;;2.40;97.64;99777.22;5035167;28;20578;-55
2021/04/05 02:35:44;;;;;;;0.20;0.20;;;;;;;2.31;98.11;99780.72;5035270;28;20459;-55
2021/04/05 02:38:11;;;;;;;0.30;0.10;;;;;;;2.29;97.83;99782.50;5035241;28;20501;-55
2021/04/05 02:40:37;;;;;;;0.20;0.10;;;;;;;2.17;97.82;99780.78;5035335;28;20451;-55
2021/04/05 02:43:04;;;;;;;0.30;0.10;;;;;;;2.05;98.24;99763.34;5034996;28;20467;-55
2021/04/05 02:45:30;;;;;;;0.30;0.10;;;;;;;1.85;99.62;99751.16;5035022;28;20963;-55
2021/04/05 02:47:59;;;;;;;0.30;0.20;;;;;;;2.20;98.43;99749.34;5035452;28;20506;-55
2021/04/05 02:50:30;;;;;;;0.20;0.10;;;;;;;2.37;97.52;99754.50;5034877;28;20452;-55
2021/04/05 02:52:59;;;;;;;0.20;0.10;;;;;;;2.09;98.69;99748.50;5034826;28;20468;-54
2021/04/05 02:55:25;;;;;;;0.20;0.10;;;;;;;2.45;96.79;99750.06;5034986;28;20448;-54
2021/04/05 02:57:52;;;;;;;0.30;0.20;;;;;;;2.41;96.47;99743.13;5033671;28;20466;-55
2021/04/05 03:00:20;;;;;;;0.20;0.10;;;;;;;2.39;97.38;99734.38;5034988;28;20448;-55
2021/04/05 03:02:49;;;;;;;0.20;0.10;;;;;;;2.12;98.12;99729.25;5034638;28;20537;-55
2021/04/05 03:05:18;;;;;;;0.30;0.10;;;;;;;2.07;98.06;99717.03;5034607;28;20447;-53
2021/04/05 03:07:44;;;;;;;0.20;0.10;;;;;;;2.04;98.34;99703.06;5035147;28;20462;-53
2021/04/05 03:10:12;;;;;;;0.20;0.10;;;;;;;1.95;98.49;99711.84;5034973;28;20609;-53
2021/04/05 03:12:40;;;;;;;0.50;0.50;;;;;;;1.82;99.55;99691.78;5034496;28;20948;-53
2021/04/05 03:15:10;;;;;;;0.30;0.10;;;;;;;1.87;99.97;99682.16;5033136;28;20824;-53
2021/04/05 03:17:37;;;;;;;0.20;0.10;;;;;;;2.00;100.00;99685.59;5020490;28;20455;-54
2021/04/05 03:20:26;;;;;;;0.20;0.20;;;;;;;1.80;100.00;99682.19;5034669;28;21312;-54
2021/04/05 03:22:53;;;;;;;0.30;0.10;;;;;;;1.98;100.00;99685.63;5034198;28;21058;-53
2021/04/05 03:25:21;;;;;;;1.80;1.70;;;;;;;2.11;99.46;99677.72;5034159;28;20509;-53
2021/04/05 03:27:49;;;;;;;0.20;0.13;;;;;;;2.08;100.00;99683.84;5034500;28;20452;-53
2021/04/05 03:30:24;;;;;;;0.20;0.10;;;;;;;2.24;98.76;99674.16;5034429;28;20487;-53
2021/04/05 03:33:01;;;;;;;0.20;0.10;;;;;;;2.18;98.57;99667.16;5034142;28;20904;-53
2021/04/05 03:35:34;;;;;;;0.20;0.10;;;;;;;2.19;99.38;99670.66;5034021;28;20443;-53
2021/04/05 03:38:01;;;;;;;0.33;0.30;;;;;;;2.45;98.73;99662.66;5033939;28;20440;-53
2021/04/05 03:40:29;;;;;;;0.30;0.20;;;;;;;2.19;100.00;99662.81;5034494;28;20440;-53
2021/04/05 03:43:06;;;;;;;0.30;0.20;;;;;;;2.20;99.92;99661.94;5033003;28;20482;-53
2021/04/05 03:45:51;;;;;;;0.30;0.20;;;;;;;2.36;98.42;99655.75;5034126;28;20450;-53
2021/04/05 03:48:26;;;;;;;0.30;0.20;;;;;;;2.25;99.37;99652.28;5033737;28;20444;-53
2021/04/05 03:51:07;;;;;;;0.20;0.20;;;;;;;2.24;100.00;99650.56;5034063;28;20444;-53
2021/04/05 03:53:55;;;;;;;0.30;0.10;;;;;;;2.59;98.60;99640.69;5033968;28;20467;-53
2021/04/05 03:56:31;;;;;;;0.20;0.20;;;;;;;2.50;99.61;99632.91;5033622;28;20456;-54
2021/04/05 03:59:04;;;;;;;0.20;0.10;;;;;;;2.25;100.00;99626.09;5033606;28;20435;-53
2021/04/05 04:01:31;;;;;;;0.30;0.20;;;;;;;2.46;99.37;99620.69;5034021;28;20458;-53
2021/04/05 04:04:09;;;;;;;0.20;0.10;;;;;;;2.65;99.18;99616.19;5033402;28;20468;-53
2021/04/05 04:06:51;;;;;;;0.20;0.10;;;;;;;2.64;99.59;99593.47;5033811;28;20443;-54
2021/04/05 04:09:20;;;;;;;0.30;0.20;;;;;;;2.55;100.00;99586.53;5033170;28;20479;-53
2021/04/05 04:11:50;;;;;;;0.30;0.20;;;;;;;2.59;99.57;99577.75;5033337;28;20456;-53
2021/04/05 04:14:17;;;;;;;0.30;0.20;;;;;;;2.53;100.00;99572.56;5033251;28;20467;-53
2021/04/05 04:16:45;;;;;;;0.20;0.10;;;;;;;2.75;99.79;99564.53;5033388;28;21007;-53
2021/04/05 04:19:12;;;;;;;0.20;0.10;;;;;;;2.64;99.87;99573.34;5020389;28;20448;-53
2021/04/05 04:21:42;;;;;;;0.30;0.20;;;;;;;2.75;99.95;99575.91;5033574;28;20452;-54
2021/04/05 04:24:09;;;;;;;0.20;0.13;;;;;;;2.67;100.00;99568.06;5032937;28;20476;-54
2021/04/05 04:26:36;;;;;;;0.30;0.10;;;;;;;2.66;100.00;99568.97;5033106;28;20452;-53
2021/04/05 04:29:04;;;;;;;0.20;0.10;;;;;;;2.86;100.00;99565.28;5033300;28;20491;-54
2021/04/05 04:31:30;;;;;;;0.20;0.10;;;;;;;2.96;99.56;99559.94;5033394;28;20477;-53
2021/04/05 04:33:56;;;;;;;0.30;0.20;;;;;;;2.79;99.48;99559.22;5032900;28;20479;-53
2021/04/05 04:36:24;;;;;;;0.20;0.10;;;;;;;3.06;98.33;99557.22;5032668;28;20451;-53
2021/04/05 04:38:52;;;;;;;0.20;0.10;;;;;;;2.92;99.09;99552.97;5033292;28;20447;-53
2021/04/05 04:41:23;;;;;;;0.20;0.20;;;;;;;2.86;99.67;99547.78;5033227;28;20526;-54
2021/04/05 04:43:57;;;;;;;0.30;0.20;;;;;;;2.92;99.86;99539.00;5033167;28;20467;-54
2021/04/05 04:46:24;;;;;;;0.23;0.20;;;;;;;3.19;99.04;99541.31;5032897;28;20559;-54
2021/04/05 04:48:54;;;;;;;0.33;0.33;;;;;;;3.01;98.71;99545.88;5033043;28;20491;-54
2021/04/05 04:51:21;;;;;;;0.30;0.20;;;;;;;2.86;99.17;99546.91;5032658;28;20486;-54
2021/04/05 04:53:48;;;;;;;0.20;0.10;;;;;;;3.13;97.72;99549.25;5032819;28;20517;-54
2021/04/05 04:56:15;;;;;;;0.20;0.10;;;;;;;2.96;98.88;99541.56;5032355;28;20460;-54
2021/04/05 04:58:43;;;;;;;0.20;0.20;;;;;;;2.92;99.31;99541.63;5033023;28;20440;-53
2021/04/05 05:01:11;;;;;;;0.67;0.57;;;;;;;3.32;97.54;99543.81;5032450;28;20452;-53
2021/04/05 05:03:44;;;;;;;0.20;0.17;;;;;;;3.19;97.86;99540.47;5032264;28;20876;-54
2021/04/05 05:06:14;;;;;;;0.20;0.10;;;;;;;2.83;98.96;99541.69;5020348;28;20815;-53
2021/04/05 05:08:42;;;;;;;0.20;0.10;;;;;;;2.86;98.92;99536.41;5032491;28;20569;-53
2021/04/05 05:11:10;;;;;;;1.67;0.73;;;;;;;2.73;100.00;99533.03;5032547;28;20949;-53
2021/04/05 05:13:36;;;;;;;0.20;0.20;;;;;;;2.63;100.00;99528.78;5032168;28;20475;-53
2021/04/05 05:16:05;;;;;;;0.20;0.10;;;;;;;2.67;100.00;99527.84;5031967;28;20456;-53
2021/04/05 05:18:32;;;;;;;0.20;0.10;;;;;;;2.72;100.00;99517.31;5032608;28;20458;-53
2021/04/05 05:21:01;;;;;;;0.30;0.30;;;;;;;2.84;100.00;99515.44;5031853;28;20559;-53
2021/04/05 05:23:30;;;;;;;0.20;0.20;;;;;;;2.85;100.00;99511.06;5032169;28;20493;-53
2021/04/05 05:25:57;;;;;;;0.20;0.20;;;;;;;2.59;100.00;99512.16;5032378;28;20883;-54
2021/04/05 05:28:24;;;;;;;0.30;0.20;;;;;;;2.89;100.00;99515.41;5031878;28;20800;-54
2021/04/05 05:30:51;;;;;;;0.30;0.20;;;;;;;3.03;100.00;99505.63;5032220;28;20502;-53
2021/04/05 05:33:19;;;;;;;0.50;0.50;;;;;;;3.12;100.00;99494.13;5031985;28;20526;-54
2021/04/05 05:35:46;;;;;;;0.20;0.10;;;;;;;3.55;100.00;99482.22;5032193;28;20456;-53
2021/04/05 05:38:13;;;;;;;0.20;0.20;;;;;;;4.04;99.92;99489.41;5032327;28;20510;-53
2021/04/05 05:40:42;;;;;;;0.23;0.10;;;;;;;4.60;98.68;99492.00;5032369;28;20521;-53
2021/04/05 05:43:35;;;;;;;0.20;0.20;;;;;;;5.03;97.25;99494.72;5031326;28;20870;-53
2021/04/05 05:46:08;;;;;;;0.30;0.20;;;;;;;5.30;96.11;99485.41;5032343;28;20444;-53
2021/04/05 05:49:07;;;;;;;0.30;0.20;;;;;;;5.62;94.55;99485.63;5032184;28;21062;-54
2021/04/05 05:51:51;;;;;;;0.30;0.20;;;;;;;5.71;93.91;99497.72;5018760;28;20856;-53
2021/04/05 05:54:41;;;;;;;0.30;0.20;;;;;;;5.94;92.86;99477.03;5030011;28;20879;-54
2021/04/05 05:57:21;;;;;;;0.60;0.60;;;;;;;6.19;92.47;99474.69;5024397;28;20490;-54
2021/04/05 06:00:21;;;;;;;0.30;0.20;;;;;;;6.12;91.39;99478.38;5031949;28;20929;-54
2021/04/05 06:02:56;;;;;;;0.30;0.20;;;;;;;6.24;90.91;99467.53;5031949;28;20525;-54
2021/04/05 06:05:34;;;;;;;3.60;1.23;;;;;;;6.48;91.54;99465.19;5032119;28;20447;-54
2021/04/05 06:08:30;;;;;;;0.30;0.20;;;;;;;6.33;91.56;99463.81;5020280;28;20528;-54
2021/04/05 06:11:29;;;;;;;0.30;0.20;;;;;;;6.37;91.76;99461.94;5031850;28;20823;-54
2021/04/05 06:14:09;;;;;;;0.30;0.20;;;;;;;6.42;91.14;99467.97;5026897;28;20977;-54
2021/04/05 06:16:47;;;;;;;0.30;0.20;;;;;;;6.62;90.15;99460.41;5031605;28;20443;-54
2021/04/05 06:19:40;;;;;;;0.30;0.20;;;;;;;6.61;89.95;99460.47;5019166;28;20816;-53
2021/04/05 06:22:38;;;;;;;0.30;0.20;;;;;;;6.60;91.19;99456.09;5031641;28;20447;-54
2021/04/05 06:25:21;;;;;;;0.30;0.20;;;;;;;6.61;91.59;99458.69;5026729;28;20502;-54
2021/04/05 06:27:56;;;;;;;0.30;0.20;;;;;;;6.68;91.52;99460.25;5031869;28;20900;-54
2021/04/05 06:31:03;;;;;;;2.00;1.90;;;;;;;6.87;91.04;99454.50;5030765;28;20478;-55
2021/04/05 06:33:59;;;;;;;0.40;0.33;;;;;;;6.71;90.78;99460.16;5033886;28;20491;-55
2021/04/05 06:36:37;;;;;;;1.53;1.40;;;;;;;6.91;91.11;99450.84;5034339;28;20463;-55
2021/04/05 06:39:12;;;;;;;0.30;0.20;;;;;;;7.07;89.84;99457.44;5035397;28;20443;-55
2021/04/05 06:41:38;;;;;;;0.77;0.77;;;;;;;7.13;89.52;99442.28;5035433;28;20447;-55
2021/04/05 06:44:22;;;;;;;0.30;0.20;;;;;;;7.12;89.91;99440.53;5035301;28;20483;-55
2021/04/05 06:46:58;;;;;;;0.30;0.20;;;;;;;7.16;88.79;99449.28;5022393;28;20801;-55
2021/04/05 06:49:45;;;;;;;0.30;0.20;;;;;;;7.30;87.30;99436.53;5034747;28;20509;-55
2021/04/05 06:52:56;;;;;;;0.30;0.20;;;;;;;7.51;87.00;99431.50;5035409;28;20482;-55
2021/04/05 06:55:38;;;;;;;0.83;0.83;;;;;;;7.33;87.09;99422.34;4996639;28;20470;-54
2021/04/05 06:58:13;;;;;;;0.30;0.20;;;;;;;7.27;88.39;99423.41;5021766;28;20498;-55
2021/04/05 07:01:06;;;;;;;0.30;0.20;;;;;;;7.37;87.10;99430.13;5034502;28;20803;-55
2021/04/05 07:03:57;;;;;;;0.30;0.20;;;;;;;7.52;86.07;99422.66;5034773;28;20530;-55
2021/04/05 07:06:43;;;;;;;0.30;0.20;;;;;;;7.53;85.88;99422.59;5023631;28;20448;-54
2021/04/05 07:09:18;;;;;;;0.30;0.20;;;;;;;7.58;86.55;99423.34;5034349;28;20471;-54
2021/04/05 07:12:15;;;;;;;0.30;0.20;;;;;;;7.68;84.14;99426.59;5034777;28;20494;-55
2021/04/05 07:14:50;;;;;;;0.30;0.20;;;;;;;7.91;84.46;99425.84;5024859;28;20468;-54
2021/04/05 07:17:27;;;;;;;0.40;0.20;;;;;;;7.99;83.82;99432.63;5034753;28;20482;-54
2021/04/05 07:20:28;;;;;;;0.30;0.20;;;;;;;7.89;83.06;99436.47;5034344;28;20444;-57
2021/04/05 07:23:12;;;;;;;0.30;0.20;;;;;;;7.91;83.09;99441.72;5003805;28;21101;-57
2021/04/05 07:25:57;;;;;;;0.30;0.20;;;;;;;7.86;83.79;99438.38;5021433;28;20998;-57
2021/04/05 07:28:28;;;;;;;0.30;0.20;;;;;;;7.75;84.61;99445.75;5034458;28;20440;-57
2021/04/05 07:31:14;;;;;;;0.30;0.20;;;;;;;7.93;83.42;99440.75;5034171;28;20848;-57
2021/04/05 07:33:44;;;;;;;0.30;0.20;;;;;;;8.02;82.87;99442.25;5034000;28;20486;-57
2021/04/05 07:36:12;;;;;;;0.53;0.53;;;;;;;7.92;82.99;99425.78;5034147;28;20498;-58
2021/04/05 07:38:51;;;;;;;0.80;0.80;;;;;;;7.98;82.79;99417.69;5033778;28;20437;-57
2021/04/05 07:41:30;;;;;;;0.30;0.20;;;;;;;7.68;83.16;99414.22;5034210;28;20208;-57
2021/04/05 07:44:03;;;;;;;0.30;0.20;;;;;;;7.86;83.44;99412.78;5033094;28;20899;-57
2021/04/05 07:46:46;;;;;;;0.30;0.20;;;;;;;7.70;83.61;99407.09;5033794;28;21010;-57
2021/04/05 07:49:28;;;;;;;4.20;2.37;;;;;;;7.94;83.26;99394.84;5033886;28;20988;-57
2021/04/05 07:52:02;;;;;;;0.30;0.20;;;;;;;8.07;82.89;99390.03;5034262;28;20474;-58
2021/04/05 07:54:33;;;;;;;7.87;3.10;;;;;;;8.10;82.39;99383.78;5033712;28;20512;-58
2021/04/05 07:57:07;;;;;;;0.83;0.83;;;;;;;7.87;82.76;99398.63;5034268;28;20502;-58
2021/04/05 07:59:43;;;;;;;0.30;0.20;;;;;;;7.98;82.42;99400.94;5032537;28;20432;-58
2021/04/05 08:02:30;;;;;;;0.30;0.20;;;;;;;7.81;82.86;99409.41;5034131;28;20443;-57
2021/04/05 08:04:59;;;;;;;0.43;0.40;;;;;;;7.98;82.41;99403.59;5023303;28;20505;-58
2021/04/05 08:07:47;;;;;;;0.30;0.30;;;;;;;8.03;82.86;99404.28;5033826;28;20796;-56
2021/04/05 08:10:23;;;;;;;0.30;0.17;;;;;;;8.03;82.98;99396.34;5032352;28;20492;-56
2021/04/05 08:12:54;;;;;;;0.30;0.20;;;;;;;7.98;82.31;99388.56;5021607;28;20513;-56
2021/04/05 08:15:47;;;;;;;0.30;0.20;;;;;;;8.08;82.22;99396.19;5033875;28;21015;-56
2021/04/05 08:18:38;;;;;;;2.73;2.40;;;;;;;8.20;82.02;99390.50;5033561;28;20505;-56
2021/04/05 08:21:11;;;;;;;0.30;0.20;;;;;;;8.02;82.11;99371.66;4996022;28;20448;-56
2021/04/05 08:24:12;;;;;;;0.30;0.20;;;;;;;8.19;82.59;99379.03;5032765;28;20502;-56
2021/04/05 08:26:55;;;;;;;0.30;0.20;;;;;;;8.30;81.82;99371.59;5033009;28;20462;-56
2021/04/05 08:29:44;;;;;;;0.30;0.20;;;;;;;8.36;82.20;99364.38;5033100;28;20940;-56
2021/04/05 08:32:21;;;;;;;0.30;0.20;;;;;;;8.39;82.11;99362.53;5020322;28;20474;-56
2021/04/05 08:35:11;;;;;;;0.43;0.43;;;;;;;8.41;81.01;99363.34;5032620;28;20475;-56
2021/04/05 08:37:50;;;;;;;0.30;0.20;;;;;;;8.28;82.07;99368.16;5033202;28;20494;-56
2021/04/05 08:40:29;;;;;;;0.30;0.20;;;;;;;8.42;81.77;99359.75;5032775;28;20898;-56
2021/04/05 08:43:15;;;;;;;0.30;0.20;;;;;;;8.52;81.74;99361.19;5033004;28;20475;-56
2021/04/05 08:45:53;;;;;;;0.30;0.20;;;;;;;8.51;81.76;99351.50;5033028;28;20444;-56
2021/04/05 08:48:20;;;;;;;2.60;0.63;;;;;;;8.56;81.41;99372.53;5032840;28;20807;-56
2021/04/05 08:50:57;;;;;;;0.30;0.20;;;;;;;8.52;81.93;99363.81;5032895;28;20545;-56
2021/04/05 08:53:24;;;;;;;0.30;0.20;;;;;;;8.63;82.08;99367.84;5032652;28;20471;-56
2021/04/05 08:55:53;;;;;;;1.50;1.37;;;;;;;8.65;81.05;99372.22;5030935;28;20451;-56
2021/04/05 08:58:35;;;;;;;0.30;0.20;;;;;;;8.60;81.57;99358.25;5021793;28;20468;-56
2021/04/05 09:01:06;;;;;;;0.37;0.30;;;;;;;8.48;82.22;99363.97;5032671;28;20443;-56
2021/04/05 09:03:35;;;;;;;0.30;0.20;;;;;;;8.48;81.90;99363.97;5032829;28;20898;-56
2021/04/05 09:06:10;;;;;;;1.90;1.03;;;;;;;8.61;81.59;99352.03;5032862;28;20479;-57
2021/04/05 09:08:37;;;;;;;0.30;0.20;;;;;;;8.64;81.97;99353.72;5032522;28;20443;-56
2021/04/05 09:11:05;;;;;;;0.30;0.20;;;;;;;8.64;82.31;99344.00;5032537;28;21012;-57
2021/04/05 09:13:37;;;;;;;0.30;0.20;;;;;;;8.68;82.05;99357.97;5032431;28;20481;-56
2021/04/05 09:16:22;;;;;;;0.30;0.20;;;;;;;8.83;81.58;99354.78;5032583;28;20443;-56
2021/04/05 09:19:00;;;;;;;0.30;0.20;;;;;;;8.87;81.22;99354.59;5032917;28;20448;-57
2021/04/05 09:21:50;;;;;;;0.30;0.20;;;;;;;8.87;81.61;99345.78;5032522;28;20941;-57
2021/04/05 09:24:36;;;;;;;0.30;0.20;;;;;;;8.85;81.21;99353.78;4997063;28;21031;-56
2021/04/05 09:27:31;;;;;;;0.30;0.20;;;;;;;8.96;81.38;99353.41;5032467;28;20452;-56
2021/04/05 09:30:29;;;;;;;0.30;0.20;;;;;;;8.89;80.41;99350.09;5032295;28;20487;-56
2021/04/05 09:33:21;;;;;;;0.30;0.20;;;;;;;8.69;81.22;99349.97;5031982;28;20491;-56
2021/04/05 09:36:32;;;;;;;0.30;0.20;;;;;;;8.76;81.61;99354.13;5032310;28;20448;-56
2021/04/05 09:39:22;;;;;;;0.87;0.50;;;;;;;8.83;80.82;99344.19;5022317;28;20451;-57
2021/04/05 09:42:08;;;;;;;0.30;0.20;;;;;;;8.74;81.54;99345.38;5032360;28;20451;-57
2021/04/05 09:44:53;;;;;;;0.30;0.20;;;;;;;8.70;81.01;99337.59;5032403;28;20479;-57
2021/04/05 09:47:50;;;;;;;0.30;0.20;;;;;;;8.66;81.65;99346.59;5032566;28;20439;-57
2021/04/05 09:50:38;;;;;;;0.30;0.20;;;;;;;8.61;81.25;99360.84;5021650;28;20477;-57
2021/04/05 09:53:23;;;;;;;0.30;0.20;;;;;;;8.56;82.23;99353.97;5032383;28;20471;-56
2021/04/05 09:55:57;;;;;;;0.30;0.20;;;;;;;8.67;81.95;99337.72;5032465;28;20451;-57
2021/04/05 09:58:26;;;;;;;0.53;0.53;;;;;;;8.58;82.98;99344.19;5032490;28;20456;-57
2021/04/05 10:01:03;;;;;;;0.30;0.20;;;;;;;8.58;83.40;99344.19;5032097;28;20947;-57
2021/04/05 10:03:37;;;;;;;0.40;0.20;;;;;;;8.67;82.66;99343.00;5031641;28;20463;-57
2021/04/05 10:06:05;;;;;;;0.30;0.20;;;;;;;8.57;83.28;99347.75;5033592;28;20439;-57
2021/04/05 10:08:33;;;;;;;0.30;0.20;;;;;;;8.53;83.12;99349.66;5036592;28;20451;-57
2021/04/05 10:11:03;;;;;;;0.30;0.20;;;;;;;8.48;83.24;99337.47;5035899;28;20640;-57
2021/04/05 10:13:32;;;;;;;0.30;0.20;;;;;;;8.48;83.07;99325.09;5035913;28;20467;-57
2021/04/05 10:16:15;;;;;;;0.30;0.20;;;;;;;8.32;84.27;99330.06;5035903;28;20505;-57
2021/04/05 10:18:48;;;;;;;0.30;0.20;;;;;;;8.54;83.86;99324.91;5035997;28;20451;-57
2021/04/05 10:21:16;;;;;;;0.30;0.20;;;;;;;8.38;84.58;99336.97;5035776;28;20451;-57
2021/04/05 10:23:44;;;;;;;0.30;0.20;;;;;;;8.41;84.32;99326.25;5035652;28;20848;-57
2021/04/05 10:26:13;;;;;;;0.30;0.20;;;;;;;8.53;83.73;99328.47;5035832;28;20455;-57
2021/04/05 10:28:41;;;;;;;0.30;0.20;;;;;;;8.36;84.38;99328.22;5035171;28;20451;-57
2021/04/05 10:31:12;;;;;;;0.30;0.20;;;;;;;8.48;84.13;99321.59;5035654;28;20498;-57
2021/04/05 10:33:44;;;;;;;0.30;0.20;;;;;;;8.51;84.64;99310.91;5035591;28;20475;-57
2021/04/05 10:36:13;;;;;;;0.30;0.20;;;;;;;8.54;84.82;99314.31;5035865;28;20501;-57
2021/04/05 10:38:40;;;;;;;0.30;0.20;;;;;;;8.58;85.36;99309.75;5022571;28;20459;-57
2021/04/05 10:41:09;;;;;;;5.40;1.83;;;;;;;8.54;85.03;99287.81;5035455;28;20555;-57
2021/04/05 10:43:40;;;;;;;0.30;0.20;;;;;;;8.63;85.29;99294.56;5035417;28;20495;-57
2021/04/05 10:46:17;;;;;;;0.30;0.20;;;;;;;8.70;84.14;99293.41;5035556;28;20517;-57
2021/04/05 10:48:54;;;;;;;0.30;0.10;;;;;;;8.63;84.16;99296.34;5035622;28;20458;-57
2021/04/05 10:51:32;;;;;;;0.30;0.20;;;;;;;8.82;83.99;99290.31;5034865;28;20448;-57
2021/04/05 10:54:04;;;;;;;0.30;0.20;;;;;;;8.77;84.98;99297.59;5035352;28;20471;-57
2021/04/05 10:56:37;;;;;;;0.30;0.20;;;;;;;8.90;83.82;99304.13;5022354;28;20945;-58
2021/04/05 10:59:38;;;;;;;0.50;0.50;;;;;;;8.74;84.24;99302.13;5035149;28;20965;-58
2021/04/05 11:02:19;;;;;;;0.30;0.20;;;;;;;8.74;84.46;99299.47;5024353;28;20462;-58
2021/04/05 11:04:54;;;;;;;0.30;0.20;;;;;;;8.93;83.89;99299.66;5023166;28;20897;-57
2021/04/05 11:07:23;;;;;;;0.30;0.20;;;;;;;8.93;84.13;99295.22;5035263;28;20447;-57
2021/04/05 11:09:54;;;;;;;0.30;0.20;;;;;;;8.68;88.42;99310.31;5035033;28;20483;-57
2021/04/05 11:12:22;;;;;;;0.30;0.20;;;;;;;8.67;90.01;99305.91;5034321;28;20482;-57
2021/04/05 11:14:50;;;;;;;0.30;0.20;;;;;;;8.41;93.05;99305.06;5034709;28;20472;-57
2021/04/05 11:17:21;;;;;;;0.30;0.20;;;;;;;8.35;93.38;99307.94;5033495;28;20525;-57
2021/04/05 11:19:53;;;;;;;0.30;0.20;;;;;;;8.36;96.28;99309.69;5034711;28;20455;-57
2021/04/05 11:22:25;;;;;;;0.30;0.20;;;;;;;8.37;95.99;99314.06;5034419;28;20944;-57
2021/04/05 11:25:05;;;;;;;0.30;0.20;;;;;;;8.31;96.01;99309.78;5027476;28;20452;-57
2021/04/05 11:27:40;;;;;;;0.63;0.60;;;;;;;8.10;98.97;99307.03;5022569;28;20802;-57
2021/04/05 11:30:09;;;;;;;0.30;0.20;;;;;;;8.05;98.33;99319.53;5034359;28;20482;-57
2021/04/05 11:32:38;;;;;;;0.30;0.20;;;;;;;7.88;98.20;99317.47;5033953;28;20941;-57
2021/04/05 11:35:10;;;;;;;0.30;0.20;;;;;;;7.93;100.00;99320.81;5034131;28;20908;-57
2021/04/05 11:37:40;;;;;;;0.70;0.50;;;;;;;7.97;100.00;99307.47;5034424;28;20444;-57
2021/04/05 11:40:15;;;;;;;0.30;0.20;;;;;;;8.01;100.00;99317.00;5034309;28;20444;-57
2021/04/05 11:42:46;;;;;;;0.30;0.20;;;;;;;8.22;100.00;99319.81;5033978;28;20504;-57
2021/04/05 11:45:27;;;;;;;0.30;0.20;;;;;;;7.93;100.00;99324.31;5034144;28;20440;-57
2021/04/05 11:47:54;;;;;;;1.03;0.97;;;;;;;7.96;100.00;99340.13;5034047;28;20447;-57
2021/04/05 11:50:27;;;;;;;0.30;0.20;;;;;;;8.09;100.00;99364.41;5033905;28;20537;-57
2021/04/05 11:53:02;;;;;;;0.30;0.20;;;;;;;7.69;100.00;99393.94;5033941;28;20475;-56
2021/04/05 11:55:31;;;;;;;0.30;0.20;;;;;;;6.57;99.18;99404.22;5024870;28;20456;-57
2021/04/05 11:58:12;;;;;;;0.30;0.20;;;;;;;6.52;100.00;99395.56;5032653;28;20460;-57
2021/04/05 12:00:41;;;;;;;0.30;0.20;;;;;;;6.15;100.00;99398.28;5033654;28;20447;-56
2021/04/05 12:03:22;;;;;;;0.30;0.20;;;;;;;6.02;100.00;99407.38;5033789;28;20530;-57
2021/04/05 12:06:06;;;;;;;0.30;0.10;;;;;;;5.99;100.00;99397.78;5033798;28;20447;-56
2021/04/05 12:08:45;;;;;;;0.30;0.20;;;;;;;6.23;100.00;99405.09;5033681;28;20510;-57
2021/04/05 12:11:13;;;;;;;0.30;0.20;;;;;;;6.49;100.00;99400.94;5021618;28;20479;-57
2021/04/05 12:13:43;;;;;;;0.30;0.20;;;;;;;6.68;100.00;99411.84;5033633;28;20526;-57